sensor_id;sensor_type;location;lat;lon;timestamp;P1;durP1;ratioP1;P2;durP2;ratioP2
61806;SDS011;47726;52.766;6.606;2023-03-29T00:01:10;9.10;;;4.88;;
61806;SDS011;47726;52.766;6.606;2023-03-29T00:03:36;5.90;;;4.25;;
61806;SDS011;47726;52.766;6.606;2023-03-29T00:06:03;6.97;;;4.43;;
61806;SDS011;47726;52.766;6.606;2023-03-29T00:08:29;8.25;;;4.38;;
61806;SDS011;47726;52.766;6.606;2023-03-29T00:10:58;8.43;;;4.53;;
61806;SDS011;47726;52.766;6.606;2023-03-29T00:13:24;8.48;;;4.45;;
61806;SDS011;47726;52.766;6.606;2023-03-29T00:15:51;7.28;;;4.47;;
61806;SDS011;47726;52.766;6.606;2023-03-29T00:18:18;8.25;;;4.60;;
61806;SDS011;47726;52.766;6.606;2023-03-29T00:20:43;7.38;;;4.80;;
61806;SDS011;47726;52.766;6.606;2023-03-29T00:23:09;8.45;;;5.00;;
61806;SDS011;47726;52.766;6.606;2023-03-29T00:25:35;7.53;;;4.63;;
61806;SDS011;47726;52.766;6.606;2023-03-29T00:28:00;8.85;;;4.85;;
61806;SDS011;47726;52.766;6.606;2023-03-29T00:30:26;9.13;;;4.70;;
61806;SDS011;47726;52.766;6.606;2023-03-29T00:32:51;8.50;;;5.20;;
61806;SDS011;47726;52.766;6.606;2023-03-29T00:35:17;7.95;;;4.68;;
61806;SDS011;47726;52.766;6.606;2023-03-29T00:37:43;8.73;;;5.20;;
61806;SDS011;47726;52.766;6.606;2023-03-29T00:40:11;9.30;;;5.53;;
61806;SDS011;47726;52.766;6.606;2023-03-29T00:42:37;10.38;;;5.18;;
61806;SDS011;47726;52.766;6.606;2023-03-29T00:45:12;8.40;;;5.20;;
61806;SDS011;47726;52.766;6.606;2023-03-29T00:50:23;8.95;;;5.50;;
61806;SDS011;47726;52.766;6.606;2023-03-29T00:53:18;8.30;;;5.15;;
61806;SDS011;47726;52.766;6.606;2023-03-29T00:55:53;9.40;;;5.30;;
61806;SDS011;47726;52.766;6.606;2023-03-29T00:58:37;8.43;;;5.50;;
61806;SDS011;47726;52.766;6.606;2023-03-29T01:01:18;10.55;;;5.38;;
61806;SDS011;47726;52.766;6.606;2023-03-29T01:03:56;9.55;;;5.57;;
61806;SDS011;47726;52.766;6.606;2023-03-29T01:06:27;9.50;;;5.55;;
61806;SDS011;47726;52.766;6.606;2023-03-29T01:08:56;8.73;;;5.40;;
61806;SDS011;47726;52.766;6.606;2023-03-29T01:11:33;10.38;;;5.68;;
61806;SDS011;47726;52.766;6.606;2023-03-29T01:14:11;8.05;;;5.05;;
61806;SDS011;47726;52.766;6.606;2023-03-29T01:16:42;8.43;;;5.35;;
61806;SDS011;47726;52.766;6.606;2023-03-29T01:19:08;8.10;;;5.32;;
61806;SDS011;47726;52.766;6.606;2023-03-29T01:21:39;8.65;;;5.50;;
61806;SDS011;47726;52.766;6.606;2023-03-29T01:26:56;8.32;;;5.43;;
61806;SDS011;47726;52.766;6.606;2023-03-29T01:29:50;7.80;;;5.50;;
61806;SDS011;47726;52.766;6.606;2023-03-29T01:32:44;10.85;;;5.60;;
61806;SDS011;47726;52.766;6.606;2023-03-29T01:35:17;7.68;;;5.40;;
61806;SDS011;47726;52.766;6.606;2023-03-29T01:37:52;9.65;;;5.53;;
61806;SDS011;47726;52.766;6.606;2023-03-29T01:40:22;9.38;;;5.45;;
61806;SDS011;47726;52.766;6.606;2023-03-29T01:53:50;8.75;;;6.00;;
61806;SDS011;47726;52.766;6.606;2023-03-29T01:56:33;10.10;;;6.20;;
61806;SDS011;47726;52.766;6.606;2023-03-29T01:59:03;11.65;;;6.50;;
61806;SDS011;47726;52.766;6.606;2023-03-29T02:01:37;12.20;;;6.15;;
61806;SDS011;47726;52.766;6.606;2023-03-29T02:04:09;10.32;;;6.20;;
61806;SDS011;47726;52.766;6.606;2023-03-29T02:06:37;9.50;;;5.93;;
61806;SDS011;47726;52.766;6.606;2023-03-29T02:09:04;12.48;;;6.50;;
61806;SDS011;47726;52.766;6.606;2023-03-29T02:11:31;10.32;;;6.43;;
61806;SDS011;47726;52.766;6.606;2023-03-29T02:13:58;10.45;;;6.60;;
61806;SDS011;47726;52.766;6.606;2023-03-29T02:16:24;10.68;;;6.45;;
61806;SDS011;47726;52.766;6.606;2023-03-29T02:18:50;11.40;;;6.70;;
61806;SDS011;47726;52.766;6.606;2023-03-29T02:21:34;10.15;;;6.55;;
61806;SDS011;47726;52.766;6.606;2023-03-29T02:24:05;12.32;;;7.43;;
61806;SDS011;47726;52.766;6.606;2023-03-29T02:26:35;14.60;;;7.82;;
61806;SDS011;47726;52.766;6.606;2023-03-29T02:29:01;11.70;;;7.72;;
61806;SDS011;47726;52.766;6.606;2023-03-29T02:31:35;11.60;;;7.75;;
61806;SDS011;47726;52.766;6.606;2023-03-29T02:34:04;11.45;;;8.05;;
61806;SDS011;47726;52.766;6.606;2023-03-29T02:36:45;13.85;;;8.77;;
61806;SDS011;47726;52.766;6.606;2023-03-29T02:39:17;16.40;;;8.70;;
61806;SDS011;47726;52.766;6.606;2023-03-29T02:41:45;12.45;;;8.40;;
61806;SDS011;47726;52.766;6.606;2023-03-29T02:44:23;13.35;;;9.05;;
61806;SDS011;47726;52.766;6.606;2023-03-29T02:46:53;14.55;;;9.77;;
61806;SDS011;47726;52.766;6.606;2023-03-29T02:49:26;14.65;;;9.90;;
61806;SDS011;47726;52.766;6.606;2023-03-29T02:51:52;17.95;;;9.98;;
61806;SDS011;47726;52.766;6.606;2023-03-29T02:54:21;17.23;;;10.38;;
61806;SDS011;47726;52.766;6.606;2023-03-29T02:56:54;14.73;;;10.18;;
61806;SDS011;47726;52.766;6.606;2023-03-29T02:59:21;18.15;;;10.98;;
61806;SDS011;47726;52.766;6.606;2023-03-29T03:01:48;15.07;;;10.25;;
61806;SDS011;47726;52.766;6.606;2023-03-29T03:04:14;16.67;;;10.93;;
61806;SDS011;47726;52.766;6.606;2023-03-29T03:06:42;19.27;;;11.18;;
61806;SDS011;47726;52.766;6.606;2023-03-29T03:09:08;16.73;;;11.35;;
61806;SDS011;47726;52.766;6.606;2023-03-29T03:11:34;17.73;;;11.18;;
61806;SDS011;47726;52.766;6.606;2023-03-29T03:13:59;17.48;;;11.43;;
61806;SDS011;47726;52.766;6.606;2023-03-29T03:16:25;18.00;;;11.77;;
61806;SDS011;47726;52.766;6.606;2023-03-29T03:18:51;14.85;;;11.02;;
61806;SDS011;47726;52.766;6.606;2023-03-29T03:21:19;17.23;;;11.15;;
61806;SDS011;47726;52.766;6.606;2023-03-29T03:23:46;16.60;;;11.82;;
61806;SDS011;47726;52.766;6.606;2023-03-29T03:26:12;16.75;;;11.05;;
61806;SDS011;47726;52.766;6.606;2023-03-29T03:28:39;16.95;;;11.43;;
61806;SDS011;47726;52.766;6.606;2023-03-29T03:31:05;17.95;;;11.35;;
61806;SDS011;47726;52.766;6.606;2023-03-29T03:33:30;18.30;;;12.13;;
61806;SDS011;47726;52.766;6.606;2023-03-29T03:35:56;17.95;;;11.10;;
61806;SDS011;47726;52.766;6.606;2023-03-29T03:38:30;18.08;;;11.50;;
61806;SDS011;47726;52.766;6.606;2023-03-29T03:40:57;18.95;;;12.30;;
61806;SDS011;47726;52.766;6.606;2023-03-29T03:43:23;18.15;;;11.90;;
61806;SDS011;47726;52.766;6.606;2023-03-29T03:45:49;17.65;;;11.40;;
61806;SDS011;47726;52.766;6.606;2023-03-29T03:48:15;18.40;;;12.27;;
61806;SDS011;47726;52.766;6.606;2023-03-29T03:50:45;18.17;;;12.45;;
61806;SDS011;47726;52.766;6.606;2023-03-29T03:53:15;16.80;;;12.25;;
61806;SDS011;47726;52.766;6.606;2023-03-29T03:55:45;17.60;;;11.88;;
61806;SDS011;47726;52.766;6.606;2023-03-29T03:58:12;17.67;;;11.68;;
61806;SDS011;47726;52.766;6.606;2023-03-29T04:00:37;16.27;;;11.60;;
61806;SDS011;47726;52.766;6.606;2023-03-29T04:03:03;15.82;;;11.55;;
61806;SDS011;47726;52.766;6.606;2023-03-29T04:05:29;17.55;;;11.70;;
61806;SDS011;47726;52.766;6.606;2023-03-29T04:07:55;18.75;;;11.43;;
61806;SDS011;47726;52.766;6.606;2023-03-29T04:10:21;15.98;;;11.52;;
61806;SDS011;47726;52.766;6.606;2023-03-29T04:12:46;18.42;;;11.55;;
61806;SDS011;47726;52.766;6.606;2023-03-29T04:15:12;15.93;;;11.05;;
61806;SDS011;47726;52.766;6.606;2023-03-29T04:17:37;16.90;;;11.35;;
61806;SDS011;47726;52.766;6.606;2023-03-29T04:20:03;16.17;;;11.43;;
61806;SDS011;47726;52.766;6.606;2023-03-29T04:22:37;19.58;;;11.55;;
61806;SDS011;47726;52.766;6.606;2023-03-29T04:25:03;17.50;;;11.70;;
61806;SDS011;47726;52.766;6.606;2023-03-29T04:27:29;18.13;;;11.40;;
61806;SDS011;47726;52.766;6.606;2023-03-29T04:29:55;18.98;;;11.70;;
61806;SDS011;47726;52.766;6.606;2023-03-29T04:32:21;15.52;;;11.20;;
61806;SDS011;47726;52.766;6.606;2023-03-29T04:34:46;18.98;;;12.00;;
61806;SDS011;47726;52.766;6.606;2023-03-29T04:37:12;17.63;;;11.68;;
61806;SDS011;47726;52.766;6.606;2023-03-29T04:39:37;15.98;;;11.45;;
61806;SDS011;47726;52.766;6.606;2023-03-29T04:42:03;16.08;;;11.18;;
61806;SDS011;47726;52.766;6.606;2023-03-29T04:44:29;16.27;;;11.25;;
61806;SDS011;47726;52.766;6.606;2023-03-29T04:46:58;16.30;;;12.07;;
61806;SDS011;47726;52.766;6.606;2023-03-29T04:49:24;16.95;;;11.13;;
61806;SDS011;47726;52.766;6.606;2023-03-29T04:51:50;16.73;;;11.38;;
61806;SDS011;47726;52.766;6.606;2023-03-29T04:54:17;15.00;;;11.23;;
61806;SDS011;47726;52.766;6.606;2023-03-29T04:56:42;16.02;;;10.48;;
61806;SDS011;47726;52.766;6.606;2023-03-29T04:59:08;16.27;;;10.93;;
61806;SDS011;47726;52.766;6.606;2023-03-29T05:01:33;15.23;;;10.38;;
61806;SDS011;47726;52.766;6.606;2023-03-29T05:03:59;16.90;;;11.00;;
61806;SDS011;47726;52.766;6.606;2023-03-29T05:06:26;18.27;;;10.65;;
61806;SDS011;47726;52.766;6.606;2023-03-29T05:08:53;16.20;;;10.50;;
61806;SDS011;47726;52.766;6.606;2023-03-29T05:11:19;14.48;;;9.88;;
61806;SDS011;47726;52.766;6.606;2023-03-29T05:13:45;16.15;;;10.52;;
61806;SDS011;47726;52.766;6.606;2023-03-29T05:16:11;15.25;;;11.15;;
61806;SDS011;47726;52.766;6.606;2023-03-29T05:18:36;14.70;;;10.00;;
61806;SDS011;47726;52.766;6.606;2023-03-29T05:21:02;15.45;;;10.20;;
61806;SDS011;47726;52.766;6.606;2023-03-29T05:23:28;16.00;;;10.57;;
61806;SDS011;47726;52.766;6.606;2023-03-29T05:25:53;16.70;;;10.18;;
61806;SDS011;47726;52.766;6.606;2023-03-29T05:28:19;15.98;;;10.00;;
61806;SDS011;47726;52.766;6.606;2023-03-29T05:30:45;17.10;;;9.95;;
61806;SDS011;47726;52.766;6.606;2023-03-29T05:33:12;15.85;;;10.45;;
61806;SDS011;47726;52.766;6.606;2023-03-29T05:35:38;15.65;;;10.07;;
61806;SDS011;47726;52.766;6.606;2023-03-29T05:38:03;15.35;;;10.30;;
61806;SDS011;47726;52.766;6.606;2023-03-29T05:40:30;15.90;;;9.93;;
61806;SDS011;47726;52.766;6.606;2023-03-29T05:42:57;16.17;;;10.13;;
61806;SDS011;47726;52.766;6.606;2023-03-29T05:45:23;13.68;;;9.85;;
61806;SDS011;47726;52.766;6.606;2023-03-29T05:47:52;16.63;;;10.82;;
61806;SDS011;47726;52.766;6.606;2023-03-29T05:50:18;15.18;;;10.82;;
61806;SDS011;47726;52.766;6.606;2023-03-29T05:52:43;14.68;;;10.15;;
61806;SDS011;47726;52.766;6.606;2023-03-29T05:55:09;17.83;;;10.45;;
61806;SDS011;47726;52.766;6.606;2023-03-29T05:57:35;16.08;;;10.27;;
61806;SDS011;47726;52.766;6.606;2023-03-29T06:00:05;13.90;;;10.02;;
61806;SDS011;47726;52.766;6.606;2023-03-29T06:02:51;14.85;;;9.82;;
61806;SDS011;47726;52.766;6.606;2023-03-29T06:05:18;14.57;;;10.20;;
61806;SDS011;47726;52.766;6.606;2023-03-29T06:07:44;15.48;;;10.43;;
61806;SDS011;47726;52.766;6.606;2023-03-29T06:10:10;14.98;;;9.93;;
61806;SDS011;47726;52.766;6.606;2023-03-29T06:12:36;18.75;;;9.93;;
61806;SDS011;47726;52.766;6.606;2023-03-29T06:15:02;13.85;;;9.32;;
61806;SDS011;47726;52.766;6.606;2023-03-29T06:17:32;15.75;;;10.13;;
61806;SDS011;47726;52.766;6.606;2023-03-29T06:19:58;15.25;;;10.07;;
61806;SDS011;47726;52.766;6.606;2023-03-29T06:22:24;13.40;;;10.52;;
61806;SDS011;47726;52.766;6.606;2023-03-29T06:24:50;13.93;;;10.15;;
61806;SDS011;47726;52.766;6.606;2023-03-29T06:27:16;16.27;;;10.05;;
61806;SDS011;47726;52.766;6.606;2023-03-29T06:29:41;15.10;;;10.55;;
61806;SDS011;47726;52.766;6.606;2023-03-29T06:32:07;16.50;;;10.60;;
61806;SDS011;47726;52.766;6.606;2023-03-29T06:34:32;16.60;;;10.25;;
61806;SDS011;47726;52.766;6.606;2023-03-29T06:36:58;14.95;;;9.65;;
61806;SDS011;47726;52.766;6.606;2023-03-29T06:39:24;13.73;;;9.68;;
61806;SDS011;47726;52.766;6.606;2023-03-29T06:41:50;14.48;;;9.90;;
61806;SDS011;47726;52.766;6.606;2023-03-29T06:44:16;16.67;;;10.20;;
61806;SDS011;47726;52.766;6.606;2023-03-29T06:46:42;13.63;;;10.07;;
61806;SDS011;47726;52.766;6.606;2023-03-29T06:49:08;17.27;;;9.85;;
61806;SDS011;47726;52.766;6.606;2023-03-29T06:51:34;14.05;;;9.82;;
61806;SDS011;47726;52.766;6.606;2023-03-29T06:53:59;13.82;;;9.43;;
61806;SDS011;47726;52.766;6.606;2023-03-29T06:56:26;14.90;;;9.65;;
61806;SDS011;47726;52.766;6.606;2023-03-29T06:58:53;14.70;;;9.48;;
61806;SDS011;47726;52.766;6.606;2023-03-29T07:01:19;15.55;;;9.32;;
61806;SDS011;47726;52.766;6.606;2023-03-29T07:03:45;14.73;;;9.77;;
61806;SDS011;47726;52.766;6.606;2023-03-29T07:06:11;15.75;;;9.82;;
61806;SDS011;47726;52.766;6.606;2023-03-29T07:08:39;15.50;;;9.00;;
61806;SDS011;47726;52.766;6.606;2023-03-29T07:11:12;15.93;;;9.85;;
61806;SDS011;47726;52.766;6.606;2023-03-29T07:13:39;14.00;;;9.38;;
61806;SDS011;47726;52.766;6.606;2023-03-29T07:16:07;14.07;;;9.90;;
61806;SDS011;47726;52.766;6.606;2023-03-29T07:18:37;12.77;;;9.05;;
61806;SDS011;47726;52.766;6.606;2023-03-29T07:21:07;15.50;;;9.25;;
61806;SDS011;47726;52.766;6.606;2023-03-29T07:23:33;13.07;;;8.68;;
61806;SDS011;47726;52.766;6.606;2023-03-29T07:25:59;13.18;;;9.27;;
61806;SDS011;47726;52.766;6.606;2023-03-29T07:28:25;13.43;;;8.48;;
61806;SDS011;47726;52.766;6.606;2023-03-29T07:30:51;16.50;;;9.18;;
61806;SDS011;47726;52.766;6.606;2023-03-29T07:33:18;11.27;;;8.40;;
61806;SDS011;47726;52.766;6.606;2023-03-29T07:35:45;14.40;;;9.27;;
61806;SDS011;47726;52.766;6.606;2023-03-29T07:38:11;17.02;;;8.93;;
61806;SDS011;47726;52.766;6.606;2023-03-29T07:40:38;15.13;;;9.30;;
61806;SDS011;47726;52.766;6.606;2023-03-29T07:43:03;12.80;;;8.52;;
61806;SDS011;47726;52.766;6.606;2023-03-29T07:45:32;13.10;;;9.05;;
61806;SDS011;47726;52.766;6.606;2023-03-29T07:47:58;11.73;;;8.85;;
61806;SDS011;47726;52.766;6.606;2023-03-29T07:50:25;13.73;;;8.75;;
61806;SDS011;47726;52.766;6.606;2023-03-29T07:52:51;13.02;;;8.70;;
61806;SDS011;47726;52.766;6.606;2023-03-29T07:55:17;13.07;;;9.00;;
61806;SDS011;47726;52.766;6.606;2023-03-29T07:57:43;17.20;;;8.98;;
61806;SDS011;47726;52.766;6.606;2023-03-29T08:00:09;14.27;;;8.77;;
61806;SDS011;47726;52.766;6.606;2023-03-29T08:02:42;13.10;;;9.00;;
61806;SDS011;47726;52.766;6.606;2023-03-29T08:05:09;14.35;;;8.60;;
61806;SDS011;47726;52.766;6.606;2023-03-29T08:07:39;13.85;;;9.00;;
61806;SDS011;47726;52.766;6.606;2023-03-29T08:10:07;15.15;;;9.02;;
61806;SDS011;47726;52.766;6.606;2023-03-29T08:12:34;14.63;;;8.40;;
61806;SDS011;47726;52.766;6.606;2023-03-29T08:15:01;13.30;;;8.68;;
61806;SDS011;47726;52.766;6.606;2023-03-29T08:17:27;12.50;;;8.95;;
61806;SDS011;47726;52.766;6.606;2023-03-29T08:19:52;13.15;;;8.55;;
61806;SDS011;47726;52.766;6.606;2023-03-29T08:22:18;12.15;;;8.40;;
61806;SDS011;47726;52.766;6.606;2023-03-29T08:24:44;15.25;;;8.82;;
61806;SDS011;47726;52.766;6.606;2023-03-29T08:27:10;13.68;;;8.45;;
61806;SDS011;47726;52.766;6.606;2023-03-29T08:29:35;12.57;;;8.13;;
61806;SDS011;47726;52.766;6.606;2023-03-29T08:32:01;12.02;;;8.38;;
61806;SDS011;47726;52.766;6.606;2023-03-29T08:34:27;10.85;;;7.72;;
61806;SDS011;47726;52.766;6.606;2023-03-29T08:36:52;13.60;;;8.82;;
61806;SDS011;47726;52.766;6.606;2023-03-29T08:39:19;12.10;;;8.18;;
61806;SDS011;47726;52.766;6.606;2023-03-29T08:44:36;14.25;;;8.95;;
61806;SDS011;47726;52.766;6.606;2023-03-29T08:47:35;14.00;;;7.85;;
61806;SDS011;47726;52.766;6.606;2023-03-29T08:50:17;13.93;;;7.95;;
61806;SDS011;47726;52.766;6.606;2023-03-29T08:52:54;13.82;;;8.20;;
61806;SDS011;47726;52.766;6.606;2023-03-29T08:55:32;13.73;;;8.63;;
61806;SDS011;47726;52.766;6.606;2023-03-29T08:58:02;12.18;;;7.90;;
61806;SDS011;47726;52.766;6.606;2023-03-29T09:00:39;14.70;;;7.97;;
61806;SDS011;47726;52.766;6.606;2023-03-29T09:03:09;11.50;;;8.15;;
61806;SDS011;47726;52.766;6.606;2023-03-29T09:05:43;12.40;;;7.95;;
61806;SDS011;47726;52.766;6.606;2023-03-29T09:08:12;12.02;;;7.97;;
61806;SDS011;47726;52.766;6.606;2023-03-29T09:10:43;13.05;;;7.95;;
61806;SDS011;47726;52.766;6.606;2023-03-29T09:13:20;13.00;;;8.35;;
61806;SDS011;47726;52.766;6.606;2023-03-29T09:18:35;12.68;;;8.00;;
61806;SDS011;47726;52.766;6.606;2023-03-29T09:27:08;11.82;;;8.45;;
61806;SDS011;47726;52.766;6.606;2023-03-29T09:35:20;13.15;;;8.30;;
61806;SDS011;47726;52.766;6.606;2023-03-29T09:37:48;12.85;;;8.18;;
61806;SDS011;47726;52.766;6.606;2023-03-29T09:40:26;15.32;;;7.95;;
61806;SDS011;47726;52.766;6.606;2023-03-29T09:42:58;12.90;;;8.63;;
61806;SDS011;47726;52.766;6.606;2023-03-29T09:45:28;14.15;;;9.07;;
61806;SDS011;47726;52.766;6.606;2023-03-29T09:47:58;14.48;;;8.63;;
61806;SDS011;47726;52.766;6.606;2023-03-29T09:50:36;14.27;;;8.77;;
61806;SDS011;47726;52.766;6.606;2023-03-29T09:53:05;14.48;;;9.00;;
61806;SDS011;47726;52.766;6.606;2023-03-29T09:55:32;15.32;;;9.43;;
61806;SDS011;47726;52.766;6.606;2023-03-29T09:58:00;17.45;;;9.73;;
61806;SDS011;47726;52.766;6.606;2023-03-29T10:00:44;13.70;;;9.05;;
61806;SDS011;47726;52.766;6.606;2023-03-29T10:03:18;16.00;;;9.98;;
61806;SDS011;47726;52.766;6.606;2023-03-29T10:05:45;14.70;;;9.32;;
61806;SDS011;47726;52.766;6.606;2023-03-29T10:08:25;16.48;;;10.32;;
61806;SDS011;47726;52.766;6.606;2023-03-29T10:10:59;16.30;;;9.88;;
61806;SDS011;47726;52.766;6.606;2023-03-29T10:13:32;14.15;;;9.95;;
61806;SDS011;47726;52.766;6.606;2023-03-29T10:16:01;16.08;;;10.75;;
61806;SDS011;47726;52.766;6.606;2023-03-29T10:18:29;14.13;;;10.05;;
61806;SDS011;47726;52.766;6.606;2023-03-29T10:20:59;17.52;;;10.55;;
61806;SDS011;47726;52.766;6.606;2023-03-29T10:23:31;17.08;;;11.02;;
61806;SDS011;47726;52.766;6.606;2023-03-29T10:25:58;15.70;;;10.50;;
61806;SDS011;47726;52.766;6.606;2023-03-29T10:28:25;14.45;;;10.25;;
61806;SDS011;47726;52.766;6.606;2023-03-29T10:30:55;16.58;;;10.68;;
61806;SDS011;47726;52.766;6.606;2023-03-29T10:33:23;15.88;;;10.77;;
61806;SDS011;47726;52.766;6.606;2023-03-29T10:35:54;17.03;;;10.97;;
61806;SDS011;47726;52.766;6.606;2023-03-29T10:38:22;18.92;;;10.90;;
61806;SDS011;47726;52.766;6.606;2023-03-29T10:40:52;15.57;;;10.27;;
61806;SDS011;47726;52.766;6.606;2023-03-29T10:45:51;14.60;;;10.07;;
61806;SDS011;47726;52.766;6.606;2023-03-29T10:48:27;17.50;;;10.25;;
61806;SDS011;47726;52.766;6.606;2023-03-29T10:50:56;16.60;;;9.95;;
61806;SDS011;47726;52.766;6.606;2023-03-29T10:53:25;15.77;;;9.60;;
61806;SDS011;47726;52.766;6.606;2023-03-29T11:06:43;15.38;;;9.95;;
61806;SDS011;47726;52.766;6.606;2023-03-29T11:09:34;13.25;;;9.65;;
61806;SDS011;47726;52.766;6.606;2023-03-29T11:23:40;12.85;;;8.85;;
61806;SDS011;47726;52.766;6.606;2023-03-29T11:26:15;12.77;;;8.70;;
61806;SDS011;47726;52.766;6.606;2023-03-29T11:34:22;14.10;;;8.52;;
61806;SDS011;47726;52.766;6.606;2023-03-29T11:42:49;13.48;;;8.50;;
61806;SDS011;47726;52.766;6.606;2023-03-29T11:45:25;14.45;;;8.90;;
61806;SDS011;47726;52.766;6.606;2023-03-29T11:48:03;13.77;;;8.85;;
61806;SDS011;47726;52.766;6.606;2023-03-29T11:50:46;14.80;;;9.07;;
61806;SDS011;47726;52.766;6.606;2023-03-29T11:53:29;15.43;;;8.98;;
61806;SDS011;47726;52.766;6.606;2023-03-29T11:56:00;14.85;;;8.88;;
61806;SDS011;47726;52.766;6.606;2023-03-29T11:58:36;13.23;;;8.48;;
61806;SDS011;47726;52.766;6.606;2023-03-29T12:01:11;13.60;;;8.47;;
61806;SDS011;47726;52.766;6.606;2023-03-29T12:03:44;12.70;;;8.73;;
61806;SDS011;47726;52.766;6.606;2023-03-29T12:09:23;13.57;;;8.73;;
61806;SDS011;47726;52.766;6.606;2023-03-29T12:12:27;13.10;;;8.48;;
61806;SDS011;47726;52.766;6.606;2023-03-29T12:15:09;16.40;;;9.30;;
61806;SDS011;47726;52.766;6.606;2023-03-29T12:18:06;13.65;;;8.65;;
61806;SDS011;47726;52.766;6.606;2023-03-29T12:20:41;13.38;;;8.57;;
61806;SDS011;47726;52.766;6.606;2023-03-29T12:23:12;11.55;;;8.52;;
61806;SDS011;47726;52.766;6.606;2023-03-29T12:25:40;13.75;;;8.68;;
61806;SDS011;47726;52.766;6.606;2023-03-29T12:31:15;15.48;;;8.57;;
61806;SDS011;47726;52.766;6.606;2023-03-29T12:39:26;14.50;;;8.70;;
61806;SDS011;47726;52.766;6.606;2023-03-29T12:42:03;14.02;;;9.18;;
61806;SDS011;47726;52.766;6.606;2023-03-29T12:44:44;13.32;;;8.82;;
61806;SDS011;47726;52.766;6.606;2023-03-29T12:47:22;12.65;;;8.52;;
61806;SDS011;47726;52.766;6.606;2023-03-29T12:49:53;13.27;;;8.93;;
61806;SDS011;47726;52.766;6.606;2023-03-29T12:52:26;13.50;;;9.00;;
61806;SDS011;47726;52.766;6.606;2023-03-29T12:55:04;14.88;;;9.13;;
61806;SDS011;47726;52.766;6.606;2023-03-29T12:58:05;13.30;;;8.93;;
61806;SDS011;47726;52.766;6.606;2023-03-29T13:03:19;14.13;;;8.90;;
61806;SDS011;47726;52.766;6.606;2023-03-29T13:05:58;15.90;;;9.30;;
61806;SDS011;47726;52.766;6.606;2023-03-29T13:08:36;17.17;;;9.60;;
61806;SDS011;47726;52.766;6.606;2023-03-29T13:11:03;13.65;;;9.55;;
61806;SDS011;47726;52.766;6.606;2023-03-29T13:13:32;16.25;;;9.65;;
61806;SDS011;47726;52.766;6.606;2023-03-29T13:19:07;16.25;;;8.90;;
61806;SDS011;47726;52.766;6.606;2023-03-29T13:21:44;12.48;;;8.82;;
61806;SDS011;47726;52.766;6.606;2023-03-29T13:26:53;13.82;;;8.77;;
61806;SDS011;47726;52.766;6.606;2023-03-29T13:29:38;14.55;;;9.77;;
61806;SDS011;47726;52.766;6.606;2023-03-29T13:32:23;13.18;;;9.32;;
61806;SDS011;47726;52.766;6.606;2023-03-29T13:45:25;13.35;;;10.27;;
61806;SDS011;47726;52.766;6.606;2023-03-29T13:48:27;13.15;;;9.63;;
61806;SDS011;47726;52.766;6.606;2023-03-29T13:53:51;14.18;;;9.75;;
61806;SDS011;47726;52.766;6.606;2023-03-29T13:56:51;13.27;;;9.55;;
61806;SDS011;47726;52.766;6.606;2023-03-29T13:59:19;13.23;;;9.75;;
61806;SDS011;47726;52.766;6.606;2023-03-29T14:01:56;15.15;;;10.05;;
61806;SDS011;47726;52.766;6.606;2023-03-29T14:04:39;16.60;;;10.15;;
61806;SDS011;47726;52.766;6.606;2023-03-29T14:07:09;16.55;;;10.60;;
61806;SDS011;47726;52.766;6.606;2023-03-29T14:09:39;12.90;;;9.85;;
61806;SDS011;47726;52.766;6.606;2023-03-29T14:12:09;15.23;;;10.15;;
61806;SDS011;47726;52.766;6.606;2023-03-29T14:14:38;14.20;;;10.70;;
61806;SDS011;47726;52.766;6.606;2023-03-29T14:17:06;15.13;;;10.40;;
61806;SDS011;47726;52.766;6.606;2023-03-29T14:19:38;14.38;;;10.77;;
61806;SDS011;47726;52.766;6.606;2023-03-29T14:22:08;15.43;;;10.43;;
61806;SDS011;47726;52.766;6.606;2023-03-29T14:24:38;15.50;;;10.55;;
61806;SDS011;47726;52.766;6.606;2023-03-29T14:27:09;12.80;;;10.38;;
61806;SDS011;47726;52.766;6.606;2023-03-29T14:29:36;12.95;;;9.65;;
61806;SDS011;47726;52.766;6.606;2023-03-29T14:32:11;14.70;;;10.20;;
61806;SDS011;47726;52.766;6.606;2023-03-29T14:34:40;15.48;;;9.80;;
61806;SDS011;47726;52.766;6.606;2023-03-29T14:37:08;13.93;;;10.60;;
61806;SDS011;47726;52.766;6.606;2023-03-29T14:39:35;13.57;;;9.63;;
61806;SDS011;47726;52.766;6.606;2023-03-29T14:42:02;14.73;;;10.70;;
61806;SDS011;47726;52.766;6.606;2023-03-29T14:44:28;14.02;;;10.48;;
61806;SDS011;47726;52.766;6.606;2023-03-29T14:46:57;16.45;;;10.98;;
61806;SDS011;47726;52.766;6.606;2023-03-29T14:49:23;14.90;;;11.07;;
61806;SDS011;47726;52.766;6.606;2023-03-29T14:51:50;14.98;;;10.82;;
61806;SDS011;47726;52.766;6.606;2023-03-29T14:54:21;12.73;;;10.07;;
61806;SDS011;47726;52.766;6.606;2023-03-29T14:56:51;15.20;;;10.75;;
61806;SDS011;47726;52.766;6.606;2023-03-29T14:59:28;13.95;;;10.82;;
61806;SDS011;47726;52.766;6.606;2023-03-29T15:02:20;17.67;;;11.02;;
61806;SDS011;47726;52.766;6.606;2023-03-29T15:04:58;15.05;;;10.13;;
61806;SDS011;47726;52.766;6.606;2023-03-29T15:07:28;15.38;;;10.90;;
61806;SDS011;47726;52.766;6.606;2023-03-29T15:09:56;15.63;;;10.77;;
61806;SDS011;47726;52.766;6.606;2023-03-29T15:12:22;15.45;;;10.38;;
61806;SDS011;47726;52.766;6.606;2023-03-29T15:14:49;12.90;;;9.25;;
61806;SDS011;47726;52.766;6.606;2023-03-29T15:19:52;14.02;;;9.52;;
61806;SDS011;47726;52.766;6.606;2023-03-29T15:22:23;12.70;;;9.30;;
61806;SDS011;47726;52.766;6.606;2023-03-29T15:24:55;11.68;;;9.40;;
61806;SDS011;47726;52.766;6.606;2023-03-29T15:27:22;10.45;;;8.77;;
61806;SDS011;47726;52.766;6.606;2023-03-29T15:29:48;12.13;;;8.77;;
61806;SDS011;47726;52.766;6.606;2023-03-29T15:32:23;13.05;;;9.05;;
61806;SDS011;47726;52.766;6.606;2023-03-29T15:34:58;13.95;;;8.75;;
61806;SDS011;47726;52.766;6.606;2023-03-29T15:37:24;13.93;;;9.65;;
61806;SDS011;47726;52.766;6.606;2023-03-29T15:39:50;13.52;;;9.38;;
61806;SDS011;47726;52.766;6.606;2023-03-29T15:42:16;14.10;;;10.57;;
61806;SDS011;47726;52.766;6.606;2023-03-29T15:44:42;15.18;;;10.48;;
61806;SDS011;47726;52.766;6.606;2023-03-29T15:47:08;14.07;;;10.07;;
61806;SDS011;47726;52.766;6.606;2023-03-29T15:49:34;17.00;;;10.32;;
61806;SDS011;47726;52.766;6.606;2023-03-29T15:52:00;14.65;;;10.38;;
61806;SDS011;47726;52.766;6.606;2023-03-29T15:54:25;13.50;;;10.23;;
61806;SDS011;47726;52.766;6.606;2023-03-29T15:56:54;15.85;;;10.85;;
61806;SDS011;47726;52.766;6.606;2023-03-29T15:59:36;13.15;;;10.85;;
61806;SDS011;47726;52.766;6.606;2023-03-29T16:02:01;13.77;;;9.98;;
61806;SDS011;47726;52.766;6.606;2023-03-29T16:04:28;13.80;;;10.57;;
61806;SDS011;47726;52.766;6.606;2023-03-29T16:06:54;12.98;;;9.70;;
61806;SDS011;47726;52.766;6.606;2023-03-29T16:09:20;14.18;;;9.88;;
61806;SDS011;47726;52.766;6.606;2023-03-29T16:11:46;14.00;;;10.00;;
61806;SDS011;47726;52.766;6.606;2023-03-29T16:14:20;13.15;;;10.63;;
61806;SDS011;47726;52.766;6.606;2023-03-29T16:16:49;15.43;;;10.48;;
61806;SDS011;47726;52.766;6.606;2023-03-29T16:19:16;14.05;;;10.52;;
61806;SDS011;47726;52.766;6.606;2023-03-29T16:21:42;15.88;;;10.40;;
61806;SDS011;47726;52.766;6.606;2023-03-29T16:24:16;16.25;;;11.35;;
61806;SDS011;47726;52.766;6.606;2023-03-29T16:26:53;17.25;;;11.45;;
61806;SDS011;47726;52.766;6.606;2023-03-29T16:29:20;16.92;;;11.20;;
61806;SDS011;47726;52.766;6.606;2023-03-29T16:31:47;15.73;;;11.65;;
61806;SDS011;47726;52.766;6.606;2023-03-29T16:34:13;16.65;;;12.52;;